Time;durP1;ratioP1;P1;durP2;ratioP2;P2;SDS_P1;SDS_P2;PMS_P1;PMS_P2;Temp;Humidity;BMP_temperature;BMP_pressure;BME280_temperature;BME280_humidity;BME280_pressure;Samples;Min_cycle;Max_cycle;Signal;HPM_P1;HPM_P2
2023/05/08 00:01:30;;;;;;;14.57;13.07;;;15.90;1.00;;;;;;5079802;28;20448;-79
2023/05/08 00:03:56;;;;;;;22.03;13.70;;;15.90;1.00;;;;;;5079839;28;20945;-80
2023/05/08 00:06:23;;;;;;;14.63;13.13;;;15.80;1.00;;;;;;5079930;28;20447;-80
2023/05/08 00:08:50;;;;;;;15.20;13.23;;;15.80;1.00;;;;;;5080486;28;20519;-80
2023/05/08 00:11:17;;;;;;;15.73;12.87;;;15.80;5.90;;;;;;5080256;28;20518;-80
2023/05/08 00:13:45;;;;;;;16.70;14.00;;;15.80;17.20;;;;;;5079891;28;20471;-80
2023/05/08 00:16:12;;;;;;;15.83;14.20;;;15.80;41.40;;;;;;5081001;28;20447;-81
2023/05/08 00:18:39;;;;;;;17.20;13.10;;;15.80;26.20;;;;;;5080471;28;20840;-79
2023/05/08 00:21:06;;;;;;;16.67;14.97;;;15.80;29.30;;;;;;5080963;28;20452;-80
2023/05/08 00:23:33;;;;;;;16.77;15.17;;;15.70;39.60;;;;;;5080306;28;20481;-80
2023/05/08 00:26:00;;;;;;;16.27;14.57;;;15.70;58.50;;;;;;5081136;28;20443;-80
2023/05/08 00:28:27;;;;;;;17.17;15.37;;;15.60;73.80;;;;;;5080298;28;20478;-80
2023/05/08 00:30:55;;;;;;;15.50;13.90;;;15.60;93.50;;;;;;5079244;28;20943;-79
2023/05/08 00:33:22;;;;;;;16.23;14.53;;;15.60;90.80;;;;;;5095667;22;20486;-79
2023/05/08 00:35:49;;;;;;;16.47;14.40;;;15.50;90.60;;;;;;5072678;28;20447;-81
2023/05/08 00:38:15;;;;;;;16.20;14.60;;;15.50;90.30;;;;;;5073750;28;20457;-80
2023/05/08 00:40:42;;;;;;;15.53;14.07;;;15.40;94.60;;;;;;5072700;28;20452;-79
2023/05/08 00:43:09;;;;;;;17.70;15.63;;;15.40;99.90;;;;;;5073021;28;20524;-80
2023/05/08 00:45:39;;;;;;;15.53;13.60;;;15.40;99.90;;;;;;5072923;28;20483;-80
2023/05/08 00:48:08;;;;;;;15.47;13.87;;;15.30;99.90;;;;;;5069850;28;20456;-79
2023/05/08 00:50:36;;;;;;;16.30;14.03;;;15.30;99.90;;;;;;5069067;28;20443;-80
2023/05/08 00:53:04;;;;;;;15.60;14.00;;;15.30;99.90;;;;;;5071761;28;20474;-78
2023/05/08 00:55:32;;;;;;;16.37;14.67;;;15.20;99.90;;;;;;5073593;28;20435;-80
2023/05/08 00:57:59;;;;;;;16.60;15.00;;;15.20;99.90;;;;;;5071960;28;20459;-80
2023/05/08 01:00:26;;;;;;;17.17;14.33;;;15.20;99.90;;;;;;5071740;28;20458;-80
2023/05/08 01:02:53;;;;;;;14.73;13.33;;;15.20;99.90;;;;;;5062514;28;20493;-78
2023/05/08 01:05:21;;;;;;;17.40;15.57;;;15.20;99.90;;;;;;5052338;28;20487;-80
2023/05/08 01:07:48;;;;;;;16.57;14.20;;;15.10;99.90;;;;;;5053111;28;20818;-80
2023/05/08 01:10:15;;;;;;;16.87;14.77;;;15.00;99.90;;;;;;5071199;28;20454;-79
2023/05/08 01:12:52;;;;;;;17.27;14.60;;;15.00;99.90;;;;;;5072480;28;20481;-81
2023/05/08 01:15:24;;;;;;;16.23;14.53;;;14.90;99.90;;;;;;5074047;28;20457;-81
2023/05/08 01:18:02;;;;;;;16.50;14.37;;;15.00;99.90;;;;;;5067483;28;20456;-80
2023/05/08 01:20:39;;;;;;;16.27;14.57;;;15.00;99.90;;;;;;5063105;28;20458;-80
2023/05/08 01:23:57;;;;;;;16.23;14.70;;;15.00;99.90;;;;;;5075646;28;20465;-79
2023/05/08 01:26:54;;;;;;;16.03;14.43;;;15.00;99.90;;;;;;5076513;28;20453;-80
2023/05/08 01:29:47;;;;;;;15.73;14.10;;;15.00;99.90;;;;;;5075847;28;20442;-80
2023/05/08 01:32:20;;;;;;;14.63;13.10;;;15.00;99.90;;;;;;5076012;28;20454;-78
2023/05/08 01:35:00;;;;;;;15.30;13.70;;;15.00;99.90;;;;;;5076050;28;20444;-78
2023/05/08 01:37:35;;;;;;;17.27;14.83;;;15.00;99.90;;;;;;5076159;28;20450;-79
2023/05/08 01:40:09;;;;;;;16.40;14.70;;;15.00;99.90;;;;;;5075799;28;20504;-80
2023/05/08 01:42:46;;;;;;;15.17;13.67;;;15.00;99.90;;;;;;5075906;28;20500;-82
2023/05/08 01:45:19;;;;;;;17.47;15.40;;;15.00;99.90;;;;;;5075651;28;20482;-80
2023/05/08 01:47:54;;;;;;;21.13;16.13;;;14.90;99.90;;;;;;5071162;28;20459;-82
2023/05/08 01:50:28;;;;;;;17.10;15.30;;;15.00;99.90;;;;;;5069796;28;20450;-81
2023/05/08 01:53:02;;;;;;;18.87;15.83;;;15.00;99.90;;;;;;5076922;28;20467;-82
2023/05/08 01:55:34;;;;;;;14.53;13.10;;;15.00;99.90;;;;;;5078223;28;20450;-81
2023/05/08 01:58:04;;;;;;;14.93;13.53;;;15.00;99.90;;;;;;5077462;28;20486;-81
2023/05/08 02:00:31;;;;;;;16.13;14.53;;;15.00;99.90;;;;;;5078058;28;20530;-82
2023/05/08 02:03:01;;;;;;;16.73;15.20;;;15.00;99.90;;;;;;5076656;28;20475;-81
2023/05/08 02:05:28;;;;;;;16.80;15.10;;;15.00;99.90;;;;;;5077752;28;20494;-81
2023/05/08 02:07:56;;;;;;;17.10;15.30;;;15.00;98.60;;;;;;5077475;28;20447;-81
2023/05/08 02:10:24;;;;;;;15.23;13.63;;;15.00;84.40;;;;;;5077998;28;20470;-82
2023/05/08 02:12:54;;;;;;;17.60;15.77;;;15.00;67.30;;;;;;5076950;28;20472;-83
2023/05/08 02:15:24;;;;;;;16.70;15.00;;;14.80;99.90;;;;;;5076869;28;20447;-82
2023/05/08 02:17:52;;;;;;;16.67;14.90;;;14.90;99.90;;;;;;5076676;28;20833;-81
2023/05/08 02:20:22;;;;;;;15.53;13.93;;;14.90;99.90;;;;;;5077571;28;20451;-82
2023/05/08 02:22:53;;;;;;;16.33;14.73;;;14.80;99.90;;;;;;5074571;28;20477;-79
2023/05/08 02:25:20;;;;;;;14.33;13.00;;;14.90;98.30;;;;;;5075094;28;20497;-80
2023/05/08 02:27:49;;;;;;;16.27;14.60;;;14.90;99.90;;;;;;5074741;28;20463;-78
2023/05/08 02:30:17;;;;;;;15.00;13.40;;;14.90;99.90;;;;;;5075253;28;20453;-80
2023/05/08 02:32:46;;;;;;;16.20;14.50;;;14.90;95.80;;;;;;5074880;28;20573;-80
2023/05/08 02:35:14;;;;;;;16.10;14.47;;;14.80;99.90;;;;;;5075860;28;20463;-79
2023/05/08 02:37:46;;;;;;;18.97;14.80;;;14.80;99.90;;;;;;5074038;28;21129;-79
2023/05/08 02:40:14;;;;;;;16.97;15.30;;;14.70;99.90;;;;;;5075321;28;20453;-78
2023/05/08 02:42:41;;;;;;;18.60;13.77;;;14.70;99.90;;;;;;5073923;28;20473;-79
2023/05/08 02:45:10;;;;;;;16.80;15.20;;;14.70;99.90;;;;;;5074609;28;20501;-79
2023/05/08 02:47:43;;;;;;;17.53;14.80;;;14.70;99.90;;;;;;5074445;28;20451;-77
2023/05/08 02:50:17;;;;;;;17.00;15.40;;;14.70;99.90;;;;;;5075382;28;20462;-79
2023/05/08 02:52:49;;;;;;;15.77;14.20;;;14.60;99.90;;;;;;5074306;28;20482;-79
2023/05/08 02:55:27;;;;;;;16.30;14.70;;;14.60;99.90;;;;;;5074720;28;20458;-79
2023/05/08 02:58:05;;;;;;;15.00;13.50;;;14.60;99.90;;;;;;5074749;28;20547;-81
2023/05/08 03:00:37;;;;;;;16.10;14.47;;;14.70;99.90;;;;;;5076529;28;21009;-81
2023/05/08 03:03:11;;;;;;;15.90;14.33;;;14.70;99.90;;;;;;5076068;28;20471;-81
2023/05/08 03:05:42;;;;;;;15.40;13.93;;;14.70;99.90;;;;;;5075795;28;21045;-80
2023/05/08 03:08:20;;;;;;;15.00;13.50;;;14.70;99.90;;;;;;5075646;28;20455;-82
2023/05/08 03:10:51;;;;;;;16.07;14.37;;;14.70;99.90;;;;;;5076959;28;20458;-82
2023/05/08 03:13:20;;;;;;;15.90;13.80;;;14.60;99.90;;;;;;5075746;28;20471;-82
2023/05/08 03:15:52;;;;;;;19.17;15.50;;;14.60;99.90;;;;;;5075578;28;20447;-79
2023/05/08 03:18:21;;;;;;;15.40;13.83;;;14.60;99.90;;;;;;5075906;28;20459;-81
2023/05/08 03:20:52;;;;;;;16.37;14.73;;;14.60;99.90;;;;;;5076248;28;20962;-82
2023/05/08 03:23:23;;;;;;;21.10;14.07;;;14.60;99.90;;;;;;5075513;28;20475;-81
2023/05/08 03:25:51;;;;;;;16.40;13.90;;;14.60;99.90;;;;;;5076081;28;20869;-81
2023/05/08 03:28:18;;;;;;;16.13;14.43;;;14.60;99.90;;;;;;5076222;28;20833;-81
2023/05/08 03:30:46;;;;;;;16.33;14.70;;;14.60;99.90;;;;;;5076554;28;20458;-81
2023/05/08 03:33:13;;;;;;;19.33;15.00;;;14.50;99.90;;;;;;5075442;28;21027;-80
2023/05/08 03:35:41;;;;;;;16.93;14.77;;;14.50;99.90;;;;;;5075952;28;20445;-82
2023/05/08 03:38:08;;;;;;;13.97;12.63;;;14.50;99.90;;;;;;5075593;28;20476;-81
2023/05/08 03:40:37;;;;;;;14.87;13.37;;;14.50;99.90;;;;;;5075585;28;20447;-80
2023/05/08 03:43:06;;;;;;;15.37;13.87;;;14.50;99.90;;;;;;5073777;28;20835;-80
2023/05/08 03:45:36;;;;;;;15.87;14.30;;;14.40;99.90;;;;;;5073360;28;20560;-80
2023/05/08 03:48:04;;;;;;;18.07;14.43;;;14.40;99.90;;;;;;5073415;28;20451;-80
2023/05/08 03:50:31;;;;;;;14.53;13.03;;;14.40;99.90;;;;;;5073590;28;20485;-80
2023/05/08 03:52:58;;;;;;;15.20;13.70;;;14.30;99.90;;;;;;5072833;28;20474;-79
2023/05/08 03:55:26;;;;;;;17.00;15.00;;;14.30;99.90;;;;;;5073504;28;20951;-78
2023/05/08 03:57:59;;;;;;;15.80;14.23;;;14.30;99.90;;;;;;5073010;28;20459;-80
2023/05/08 04:00:37;;;;;;;16.20;14.60;;;14.30;99.90;;;;;;5073428;28;20468;-78
2023/05/08 04:03:14;;;;;;;16.37;14.73;;;14.20;99.90;;;;;;5072259;28;20473;-79
2023/05/08 04:05:50;;;;;;;15.53;13.93;;;14.20;99.90;;;;;;5074205;28;20489;-80
2023/05/08 04:08:22;;;;;;;15.07;13.53;;;14.20;99.90;;;;;;5075375;28;20485;-82
2023/05/08 04:10:55;;;;;;;14.27;12.87;;;14.20;99.90;;;;;;5075254;28;20461;-79
2023/05/08 04:13:30;;;;;;;15.20;13.80;;;14.20;99.90;;;;;;5075101;28;20482;-80
2023/05/08 04:16:05;;;;;;;14.87;13.30;;;14.20;99.90;;;;;;5072713;28;20458;-79
2023/05/08 04:18:37;;;;;;;15.60;14.00;;;14.20;99.90;;;;;;5072160;28;20457;-80
2023/05/08 04:21:08;;;;;;;14.97;13.37;;;14.20;99.90;;;;;;5072684;28;20454;-79
2023/05/08 04:23:36;;;;;;;15.67;14.10;;;14.20;99.90;;;;;;5072410;28;20682;-78
2023/05/08 04:26:03;;;;;;;17.27;15.73;;;14.30;99.90;;;;;;5072974;28;20491;-78
2023/05/08 04:28:32;;;;;;;14.27;12.83;;;14.20;99.90;;;;;;5072897;28;20828;-78
2023/05/08 04:30:59;;;;;;;17.70;14.80;;;14.30;99.90;;;;;;5073168;28;20451;-80
2023/05/08 04:33:27;;;;;;;16.20;14.60;;;14.30;99.90;;;;;;5074740;28;20482;-81
2023/05/08 04:35:54;;;;;;;15.70;14.10;;;14.30;99.90;;;;;;5074086;28;20453;-81
2023/05/08 04:38:21;;;;;;;23.37;15.13;;;14.40;99.90;;;;;;5074876;28;20956;-81
2023/05/08 04:40:47;;;;;;;17.17;15.43;;;14.40;99.90;;;;;;5074146;28;20461;-80
2023/05/08 04:43:14;;;;;;;16.37;14.77;;;14.40;99.90;;;;;;5074507;28;20482;-80
2023/05/08 04:45:42;;;;;;;16.07;14.40;;;14.40;99.90;;;;;;5071904;28;20499;-83
2023/05/08 04:48:09;;;;;;;16.70;15.00;;;14.50;99.90;;;;;;5074893;28;20459;-81
2023/05/08 04:50:36;;;;;;;16.47;14.73;;;14.50;99.90;;;;;;5074225;28;20470;-81
2023/05/08 04:53:03;;;;;;;15.80;14.20;;;14.50;99.90;;;;;;5076140;28;20471;-78
2023/05/08 04:55:30;;;;;;;16.30;14.70;;;14.60;99.90;;;;;;5076133;28;20961;-79
2023/05/08 04:57:56;;;;;;;17.23;15.43;;;14.70;99.90;;;;;;5076339;28;20464;-79
2023/05/08 05:00:23;;;;;;;15.30;13.90;;;14.70;99.90;;;;;;5076810;28;20541;-79
2023/05/08 05:02:51;;;;;;;17.03;15.30;;;14.80;99.90;;;;;;5075959;28;20504;-78
2023/05/08 05:05:18;;;;;;;16.53;14.20;;;14.80;99.90;;;;;;5076046;28;20477;-78
2023/05/08 05:07:45;;;;;;;17.73;14.37;;;14.90;99.90;;;;;;5072141;28;20450;-76
2023/05/08 05:10:14;;;;;;;16.03;14.50;;;15.00;99.90;;;;;;5065489;28;20456;-80
2023/05/08 05:12:41;;;;;;;17.30;15.60;;;15.10;99.90;;;;;;5074321;28;20994;-80
2023/05/08 05:15:09;;;;;;;21.63;16.63;;;15.20;99.90;;;;;;5075609;28;20549;-82
2023/05/08 05:17:35;;;;;;;21.60;17.23;;;15.20;99.90;;;;;;5078229;28;20684;-79
2023/05/08 05:20:05;;;;;;;31.90;18.87;;;15.30;99.90;;;;;;5073636;28;20832;-81
2023/05/08 05:22:32;;;;;;;22.27;16.17;;;15.40;99.90;;;;;;5077730;28;20477;-81
2023/05/08 05:24:59;;;;;;;18.27;14.83;;;15.50;99.90;;;;;;5077690;28;20503;-79
2023/05/08 05:27:26;;;;;;;19.07;17.17;;;15.50;99.90;;;;;;5076045;28;20451;-80
2023/05/08 05:29:53;;;;;;;19.50;15.93;;;15.60;99.90;;;;;;5074746;28;20451;-78
2023/05/08 05:32:23;;;;;;;16.70;15.10;;;15.60;99.90;;;;;;5075004;28;20459;-79
2023/05/08 05:34:51;;;;;;;16.73;14.97;;;15.70;99.90;;;;;;5075098;28;20473;-78
2023/05/08 05:37:19;;;;;;;15.30;13.70;;;15.80;99.90;;;;;;5076248;28;20451;-80
2023/05/08 05:39:46;;;;;;;15.13;13.50;;;16.00;99.90;;;;;;5077002;28;20452;-79
2023/05/08 05:42:13;;;;;;;15.00;13.50;;;16.20;99.90;;;;;;5075386;28;20447;-78
2023/05/08 05:44:40;;;;;;;18.50;16.50;;;16.30;99.90;;;;;;5075330;28;20455;-78
2023/05/08 05:47:08;;;;;;;15.00;13.50;;;16.40;93.30;;;;;;5074138;28;20487;-77
2023/05/08 05:49:35;;;;;;;14.37;13.03;;;16.60;45.80;;;;;;5066293;28;20462;-80
2023/05/08 05:52:02;;;;;;;14.73;13.20;;;16.70;37.90;;;;;;5076927;28;20465;-78
2023/05/08 05:54:30;;;;;;;13.57;12.23;;;16.80;37.30;;;;;;5076769;28;20469;-81
2023/05/08 05:56:57;;;;;;;13.90;12.70;;;16.90;35.60;;;;;;5073406;28;20539;-78
2023/05/08 05:59:24;;;;;;;14.73;13.10;;;17.10;13.50;;;;;;5076619;28;20967;-81
2023/05/08 06:01:51;;;;;;;15.43;13.73;;;17.20;1.00;;;;;;5077811;28;20510;-80
2023/05/08 06:04:17;;;;;;;14.10;12.27;;;17.10;1.00;;;;;;5075811;28;20477;-80
2023/05/08 06:06:44;;;;;;;12.33;11.13;;;17.30;1.00;;;;;;5075625;28;20494;-80
2023/05/08 06:09:11;;;;;;;14.07;12.57;;;17.30;1.00;;;;;;5075133;28;20983;-77
2023/05/08 06:11:39;;;;;;;13.97;12.10;;;17.40;1.00;;;;;;5075790;28;20473;-79
2023/05/08 06:14:06;;;;;;;13.00;11.70;;;17.50;1.00;;;;;;5074450;28;20872;-80
2023/05/08 06:16:34;;;;;;;11.00;9.90;;;17.60;1.00;;;;;;5075943;28;20811;-80
2023/05/08 06:19:01;;;;;;;9.50;8.60;;;17.80;1.00;;;;;;5077185;28;20497;-80
2023/05/08 06:21:28;;;;;;;9.70;8.70;;;17.90;1.00;;;;;;5075927;28;20862;-79
2023/05/08 06:23:55;;;;;;;12.23;9.83;;;18.10;1.00;;;;;;5075313;28;20469;-81
2023/05/08 06:26:22;;;;;;;13.30;9.83;;;18.00;1.00;;;;;;5076465;28;20497;-79
2023/05/08 06:28:50;;;;;;;8.90;8.10;;;18.10;1.00;;;;;;5073775;28;20447;-79
2023/05/08 06:31:17;;;;;;;8.60;7.70;;;18.30;1.00;;;;;;5075150;28;20447;-80
2023/05/08 06:33:44;;;;;;;8.57;7.67;;;18.30;1.00;;;;;;5077196;28;20486;-79
2023/05/08 06:36:16;;;;;;;10.57;9.50;;;18.40;1.00;;;;;;5076252;28;20449;-82
2023/05/08 06:38:43;;;;;;;10.07;9.07;;;18.60;1.00;;;;;;5077036;28;20453;-80
2023/05/08 06:41:09;;;;;;;11.43;9.97;;;18.60;99.90;;;;;;5075966;28;20456;-79
2023/05/08 06:43:36;;;;;;;8.30;7.50;;;18.50;99.90;;;;;;5075836;28;20561;-79
2023/05/08 06:46:11;;;;;;;8.50;7.60;;;18.50;99.90;;;;;;5074804;28;20574;-77
2023/05/08 06:48:37;;;;;;;10.07;9.03;;;18.70;99.90;;;;;;5080215;28;20453;-79
2023/05/08 06:51:04;;;;;;;9.67;8.67;;;18.80;99.90;;;;;;5078187;28;20450;-81
2023/05/08 06:53:34;;;;;;;11.20;10.07;;;18.80;99.90;;;;;;5075817;28;20478;-84
2023/05/08 06:56:01;;;;;;;10.60;9.60;;;18.60;94.40;;;;;;5072738;28;20450;-79
2023/05/08 06:58:28;;;;;;;10.53;9.53;;;18.80;99.90;;;;;;5074029;28;20461;-79
2023/05/08 07:00:54;;;;;;;12.43;10.60;;;18.80;1.00;;;;;;5078321;28;20483;-81
2023/05/08 07:03:23;;;;;;;10.30;9.30;;;19.00;1.00;;;;;;5063587;28;20504;-80
2023/05/08 07:05:49;;;;;;;13.30;10.37;;;19.00;1.00;;;;;;5079186;28;20486;-80
2023/05/08 07:08:16;;;;;;;9.40;8.53;;;19.30;1.00;;;;;;5077545;28;20466;-81
2023/05/08 07:10:43;;;;;;;9.37;8.47;;;19.50;1.00;;;;;;5078086;28;20457;-80
2023/05/08 07:13:10;;;;;;;10.77;7.07;;;19.60;99.90;;;;;;5077161;28;20553;-81
2023/05/08 07:15:37;;;;;;;9.33;8.13;;;19.90;99.90;;;;;;5068852;28;20456;-81
2023/05/08 07:18:05;;;;;;;7.80;7.10;;;19.90;1.00;;;;;;5071304;28;20470;-81
2023/05/08 07:20:34;;;;;;;8.03;6.20;;;19.90;99.90;;;;;;5076301;28;20461;-80
2023/05/08 07:23:01;;;;;;;7.83;6.47;;;19.90;1.00;;;;;;5076809;28;20517;-80
2023/05/08 07:25:28;;;;;;;6.50;4.73;;;19.60;1.00;;;;;;5073459;28;20461;-80
2023/05/08 07:27:54;;;;;;;5.90;5.20;;;19.80;47.60;;;;;;5071655;28;20483;-81
2023/05/08 07:30:21;;;;;;;4.93;4.23;;;19.70;99.90;;;;;;5074133;28;20900;-82
2023/05/08 07:32:48;;;;;;;7.57;4.97;;;19.80;1.00;;;;;;5067823;28;20486;-82
2023/05/08 07:35:18;;;;;;;5.20;4.70;;;19.80;1.00;;;;;;5075432;28;20827;-80
2023/05/08 07:37:46;;;;;;;4.97;4.47;;;19.70;99.20;;;;;;5070943;28;20479;-81
2023/05/08 07:40:13;;;;;;;6.23;5.00;;;19.90;99.90;;;;;;5073320;28;20465;-78
2023/05/08 07:42:41;;;;;;;10.13;5.17;;;20.00;99.90;;;;;;5074546;28;20470;-80
2023/05/08 07:45:09;;;;;;;9.13;4.37;;;19.10;99.90;;;;;;5073616;28;20494;-83
2023/05/08 07:47:36;;;;;;;4.70;4.30;;;19.20;99.90;;;;;;5074916;28;20489;-82
2023/05/08 07:50:03;;;;;;;5.40;4.30;;;19.50;99.90;;;;;;5070752;28;20469;-81
2023/05/08 07:52:30;;;;;;;7.03;4.90;;;19.60;99.90;;;;;;5072479;28;20454;-79
2023/05/08 07:54:58;;;;;;;7.83;4.33;;;19.80;1.00;;;;;;5074264;28;20462;-82
2023/05/08 07:57:25;;;;;;;5.10;4.13;;;20.00;1.00;;;;;;5070815;28;20465;-79
2023/05/08 07:59:52;;;;;;;6.63;5.20;;;20.10;7.00;;;;;;5070074;28;20526;-83
2023/05/08 08:02:19;;;;;;;5.03;4.50;;;19.60;1.00;;;;;;5070195;28;20454;-80
2023/05/08 08:04:46;;;;;;;5.10;4.20;;;19.90;99.90;;;;;;5059134;28;20452;-80
2023/05/08 08:07:12;;;;;;;5.10;4.60;;;20.00;99.90;;;;;;5072280;28;20482;-81
2023/05/08 08:09:39;;;;;;;5.10;4.60;;;20.30;99.90;;;;;;5074144;28;20879;-80
2023/05/08 08:12:08;;;;;;;6.20;3.77;;;20.40;99.90;;;;;;5076531;28;20486;-80
2023/05/08 08:14:34;;;;;;;5.17;4.67;;;20.60;99.90;;;;;;5069417;28;20483;-79
2023/05/08 08:17:01;;;;;;;5.20;3.40;;;20.60;1.00;;;;;;5068292;28;20448;-79
2023/05/08 08:19:28;;;;;;;4.37;3.50;;;20.50;99.90;;;;;;5074746;28;20474;-81
2023/05/08 08:21:55;;;;;;;4.57;3.40;;;20.60;99.90;;;;;;5072684;28;20531;-80
2023/05/08 08:24:24;;;;;;;4.17;3.80;;;20.60;91.80;;;;;;5065261;28;20467;-81
2023/05/08 08:26:50;;;;;;;4.70;3.53;;;20.70;37.60;;;;;;5067569;28;20479;-80
2023/05/08 08:29:19;;;;;;;3.37;3.07;;;20.70;99.90;;;;;;5070489;28;20702;-83
2023/05/08 08:31:45;;;;;;;3.60;3.23;;;21.00;99.90;;;;;;5073685;28;20448;-81
2023/05/08 08:34:12;;;;;;;5.70;4.17;;;21.30;92.10;;;;;;5059637;28;20484;-81
2023/05/08 08:36:40;;;;;;;5.13;4.73;;;21.50;93.70;;;;;;5067484;28;20478;-78
2023/05/08 08:39:06;;;;;;;5.10;4.20;;;21.40;1.00;;;;;;5075006;28;20977;-81
2023/05/08 08:41:33;;;;;;;7.03;4.10;;;21.50;99.90;;;;;;5072282;28;20613;-80
2023/05/08 08:44:00;;;;;;;4.80;4.30;;;21.60;99.90;;;;;;5072335;28;20481;-82
2023/05/08 08:46:29;;;;;;;3.73;3.43;;;21.70;99.90;;;;;;5075145;28;20489;-81
2023/05/08 08:48:58;;;;;;;5.57;4.23;;;21.50;99.90;;;;;;5075003;28;20459;-80
2023/05/08 08:51:28;;;;;;;3.50;3.20;;;21.80;99.90;;;;;;5071492;28;20465;-78
2023/05/08 08:54:04;;;;;;;6.43;3.30;;;21.80;99.90;;;;;;5072642;28;20471;-80
2023/05/08 08:56:32;;;;;;;4.97;3.80;;;21.50;99.90;;;;;;5070725;28;20443;-79
2023/05/08 08:59:00;;;;;;;4.90;3.40;;;21.70;99.90;;;;;;5063670;28;20931;-80
2023/05/08 09:01:29;;;;;;;4.03;3.63;;;21.80;99.90;;;;;;5075707;28;20479;-81
2023/05/08 09:03:58;;;;;;;5.67;3.27;;;21.80;99.90;;;;;;5074483;28;20808;-81
2023/05/08 09:06:26;;;;;;;4.17;3.13;;;21.80;99.90;;;;;;5074376;28;20504;-81
2023/05/08 09:08:55;;;;;;;3.40;3.10;;;21.90;99.90;;;;;;5068953;28;20459;-82
2023/05/08 09:11:22;;;;;;;4.20;3.63;;;22.10;99.90;;;;;;5074680;28;20538;-82
2023/05/08 09:13:49;;;;;;;3.00;2.80;;;21.90;99.90;;;;;;5069441;28;20475;-79
2023/05/08 09:16:16;;;;;;;3.37;2.70;;;21.70;99.90;;;;;;5073760;28;20970;-79
2023/05/08 09:18:44;;;;;;;3.90;3.07;;;21.60;99.90;;;;;;5073215;28;20530;-80
2023/05/08 09:21:11;;;;;;;3.80;2.37;;;21.80;99.90;;;;;;5068033;28;20459;-79
2023/05/08 09:23:53;;;;;;;4.63;3.70;;;22.00;99.90;;;;;;5070100;28;20497;-79
2023/05/08 09:26:27;;;;;;;4.93;3.40;;;21.90;75.30;;;;;;5071041;28;20449;-79
2023/05/08 09:29:08;;;;;;;4.33;3.93;;;21.80;39.30;;;;;;5072068;28;20466;-81
2023/05/08 09:31:35;;;;;;;3.50;3.20;;;21.90;99.90;;;;;;5072609;28;20947;-79
2023/05/08 09:34:04;;;;;;;3.73;3.43;;;21.80;99.90;;;;;;5074217;28;20483;-82
2023/05/08 09:36:33;;;;;;;3.37;3.03;;;21.70;96.20;;;;;;5075142;28;20451;-80
2023/05/08 09:39:00;;;;;;;4.40;3.53;;;21.80;99.90;;;;;;5078249;28;20451;-80
2023/05/08 09:41:27;;;;;;;4.20;3.60;;;21.90;99.90;;;;;;5072118;28;20550;-79
2023/05/08 09:44:02;;;;;;;3.13;2.83;;;21.80;99.90;;;;;;5074849;28;20470;-80
2023/05/08 09:46:29;;;;;;;3.73;3.00;;;22.00;99.90;;;;;;5077186;28;20456;-81
2023/05/08 09:48:57;;;;;;;4.43;3.17;;;22.10;99.90;;;;;;5075059;28;20459;-80
2023/05/08 09:51:26;;;;;;;3.87;3.17;;;21.90;99.90;;;;;;5080420;28;20460;-79
2023/05/08 09:53:54;;;;;;;4.40;4.00;;;21.90;99.90;;;;;;5076871;28;20470;-80
2023/05/08 09:56:35;;;;;;;4.70;3.73;;;21.80;99.90;;;;;;5068929;28;20527;-81
2023/05/08 09:59:05;;;;;;;4.17;3.00;;;22.10;99.90;;;;;;5069383;28;20545;-78
2023/05/08 10:01:33;;;;;;;3.10;2.80;;;22.30;99.30;;;;;;5076293;28;20460;-79
2023/05/08 10:04:00;;;;;;;3.87;3.07;;;22.30;25.60;;;;;;5077203;28;20485;-81
2023/05/08 10:06:29;;;;;;;3.17;2.80;;;22.10;31.00;;;;;;5068946;28;20502;-79
2023/05/08 10:09:09;;;;;;;4.37;3.13;;;22.00;93.50;;;;;;5079565;28;20534;-80
2023/05/08 10:11:36;;;;;;;3.50;3.20;;;22.30;99.90;;;;;;5071835;28;20466;-83
2023/05/08 10:14:03;;;;;;;3.40;3.10;;;22.40;99.90;;;;;;5081336;28;20542;-81
2023/05/08 10:16:31;;;;;;;3.73;2.63;;;22.60;29.00;;;;;;5079005;28;20538;-82
2023/05/08 10:19:01;;;;;;;3.70;3.17;;;22.70;1.00;;;;;;5073290;28;20450;-82
2023/05/08 10:21:35;;;;;;;4.60;3.00;;;23.10;23.30;;;;;;5075929;28;20840;-84
2023/05/08 10:24:05;;;;;;;3.33;2.97;;;23.30;1.00;;;;;;5066831;28;20476;-79
2023/05/08 10:26:38;;;;;;;3.60;2.80;;;23.30;1.00;;;;;;5079988;28;20509;-83
2023/05/08 10:29:07;;;;;;;4.80;3.57;;;23.30;1.00;;;;;;5073002;28;20470;-83
2023/05/08 10:31:37;;;;;;;3.90;3.50;;;22.80;1.00;;;;;;5074723;28;20443;-83
2023/05/08 10:34:04;;;;;;;4.23;2.63;;;21.80;1.00;;;;;;5077265;28;20482;-81
2023/05/08 10:36:35;;;;;;;3.23;2.63;;;22.30;1.00;;;;;;5075109;28;20451;-83
2023/05/08 10:39:02;;;;;;;3.90;3.40;;;22.50;1.00;;;;;;5078305;28;20459;-79
2023/05/08 10:41:29;;;;;;;3.47;3.17;;;22.30;1.00;;;;;;5078281;28;20479;-84
2023/05/08 10:43:56;;;;;;;3.10;2.80;;;22.30;1.00;;;;;;5077800;28;20477;-82
2023/05/08 10:46:30;;;;;;;3.87;3.50;;;22.10;1.00;;;;;;5080676;28;20451;-81
2023/05/08 10:49:12;;;;;;;4.67;3.60;;;21.90;1.00;;;;;;5076147;28;20471;-82
2023/05/08 10:51:53;;;;;;;4.03;3.63;;;22.10;14.10;;;;;;5069182;28;20455;-83
2023/05/08 10:54:31;;;;;;;4.30;3.43;;;22.20;6.10;;;;;;5076131;28;20493;-82
2023/05/08 10:57:09;;;;;;;3.83;3.03;;;22.30;62.80;;;;;;5069746;28;20447;-82
2023/05/08 10:59:36;;;;;;;3.83;3.43;;;22.40;1.00;;;;;;5079482;28;20500;-84
2023/05/08 11:02:07;;;;;;;4.13;2.80;;;22.10;35.10;;;;;;5075487;28;20823;-81
2023/05/08 11:04:35;;;;;;;3.50;3.00;;;22.30;1.00;;;;;;5074009;28;20482;-82
2023/05/08 11:07:07;;;;;;;4.33;3.40;;;22.50;1.00;;;;;;5078085;28;20832;-79
2023/05/08 11:09:46;;;;;;;3.43;3.13;;;22.70;1.00;;;;;;5074008;28;20502;-83
2023/05/08 11:12:21;;;;;;;3.83;2.70;;;23.30;1.00;;;;;;5077643;28;20518;-81
2023/05/08 11:14:57;;;;;;;2.83;2.50;;;23.80;1.00;;;;;;5084883;28;21079;-84
2023/05/08 11:17:27;;;;;;;7.53;2.60;;;24.40;1.00;;;;;;5086051;28;20474;-84
2023/05/08 11:19:58;;;;;;;3.63;2.77;;;24.80;1.00;;;;;;5080154;28;20447;-85
2023/05/08 11:22:29;;;;;;;2.90;2.60;;;24.80;1.00;;;;;;5087242;28;20518;-81
2023/05/08 11:25:09;;;;;;;3.20;2.90;;;24.70;1.00;;;;;;5081016;28;20453;-83
2023/05/08 11:27:38;;;;;;;3.70;1.93;;;24.70;1.00;;;;;;5080216;28;20725;-83
2023/05/08 11:30:35;;;;;;;2.97;1.80;;;25.00;1.00;;;;;;5083399;28;20485;-84
2023/05/08 11:33:15;;;;;;;5.30;2.37;;;25.00;1.00;;;;;;5078436;28;20477;-81
2023/05/08 11:35:47;;;;;;;3.67;2.27;;;25.40;1.00;;;;;;5078119;28;20451;-82
2023/05/08 11:38:24;;;;;;;3.03;2.00;;;25.90;1.00;;;;;;5079073;28;20448;-80
2023/05/08 11:40:59;;;;;;;2.47;1.83;;;25.50;1.00;;;;;;5076495;28;20540;-81
2023/05/08 11:44:03;;;;;;;2.23;1.60;;;25.30;1.00;;;;;;5082965;28;20482;-81
2023/05/08 11:46:38;;;;;;;1.80;1.40;;;25.50;1.00;;;;;;5074580;28;20466;-83
2023/05/08 11:49:05;;;;;;;2.30;1.30;;;26.00;1.00;;;;;;5080424;28;20501;-83
2023/05/08 11:51:33;;;;;;;2.70;1.40;;;26.10;99.90;;;;;;5082628;28;21499;-85
2023/05/08 11:54:01;;;;;;;2.40;1.57;;;26.20;99.90;;;;;;5090107;28;20482;-82
2023/05/08 11:56:28;;;;;;;2.43;1.63;;;26.20;99.90;;;;;;5081192;28;20460;-82
2023/05/08 11:59:05;;;;;;;1.93;1.50;;;26.10;99.90;;;;;;5087847;28;20500;-84
2023/05/08 12:01:32;;;;;;;2.77;1.60;;;25.90;99.90;;;;;;5092218;28;20453;-82
2023/05/08 12:04:03;;;;;;;2.20;1.90;;;26.00;99.90;;;;;;5088660;28;20472;-86
2023/05/08 12:06:31;;;;;;;3.07;1.93;;;26.30;99.90;;;;;;5092098;28;20455;-83
2023/05/08 12:08:58;;;;;;;2.20;1.50;;;26.40;99.90;;;;;;5092862;28;20509;-87
2023/05/08 12:11:27;;;;;;;3.63;1.50;;;26.00;99.90;;;;;;5095053;28;20439;-87
2023/05/08 12:13:55;;;;;;;3.40;1.80;;;25.80;99.90;;;;;;5090152;28;20467;-90
2023/05/08 12:16:23;;;;;;;3.30;2.00;;;25.40;99.90;;;;;;5093050;28;20439;-86
2023/05/08 12:18:51;;;;;;;2.03;1.50;;;25.20;99.90;;;;;;5092052;28;20510;-85
2023/05/08 12:21:18;;;;;;;3.13;1.50;;;25.30;99.90;;;;;;5092740;28;20504;-89
2023/05/08 12:23:45;;;;;;;3.43;1.70;;;24.80;99.90;;;;;;5099199;28;20512;-91
2023/05/08 12:26:12;;;;;;;2.20;1.60;;;24.50;99.90;;;;;;5093920;28;20458;-93
2023/05/08 12:28:43;;;;;;;3.23;2.30;;;24.10;99.90;;;;;;5095829;28;20487;-90
2023/05/08 12:31:11;;;;;;;2.60;1.70;;;24.20;99.90;;;;;;5094514;28;20466;-91
2023/05/08 12:33:37;;;;;;;2.43;1.70;;;24.60;99.90;;;;;;5089331;28;20694;-90
2023/05/08 12:36:05;;;;;;;8.03;1.90;;;24.90;99.90;;;;;;5095018;28;20439;-88
2023/05/08 12:38:32;;;;;;;2.50;1.70;;;25.10;99.90;;;;;;5094008;28;20435;-89
2023/05/08 12:41:03;;;;;;;2.83;1.50;;;25.20;99.90;;;;;;5091654;28;20470;-89
2023/05/08 12:43:34;;;;;;;2.50;2.00;;;25.60;99.90;;;;;;5086651;28;20583;-88
2023/05/08 12:46:03;;;;;;;2.50;1.87;;;26.00;99.90;;;;;;5088183;28;20432;-88
2023/05/08 12:48:31;;;;;;;3.80;2.23;;;26.10;99.90;;;;;;5097529;28;20488;-88
2023/05/08 12:51:03;;;;;;;2.17;1.50;;;26.40;99.90;;;;;;5079246;28;20547;-83